EST,Max TemperatureF,Mean TemperatureF,Min TemperatureF,Max Dew PointF,MeanDew PointF,Min DewpointF,Max Humidity, Mean Humidity, Min Humidity, Max Sea Level PressureIn, Mean Sea Level PressureIn, Min Sea Level PressureIn, Max VisibilityMiles, Mean VisibilityMiles, Min VisibilityMiles, Max Wind SpeedMPH, Mean Wind SpeedMPH, Max Gust SpeedMPH,PrecipitationIn, CloudCover, Events, WindDirDegrees
2012-11-1,57,48,42,43,41,39,93,78,53,29.59,29.55,29.52,10,10,2,14,3,22,0.01,4,Rain,234
2012-11-2,53,47,37,41,38,35,93,73,57,29.62,29.57,29.54,10,10,10,10,3,,0.00,6,Rain,283
2012-11-3,55,46,36,36,33,29,86,65,47,29.80,29.70,29.62,10,10,10,12,6,,0.00,3,,293
2012-11-4,55,46,33,35,31,28,82,64,45,29.94,29.87,29.80,10,10,10,9,6,,0.00,2,,295
2012-11-5,43,36,28,30,25,18,76,60,45,30.14,30.00,29.94,10,10,9,14,7,23,0.00,6,Snow,339
2012-11-6,42,34,26,22,19,16,75,58,38,30.24,30.20,30.14,10,10,10,9,5,,0.00,0,,334
2012-11-7,44,42,39,37,36,32,93,83,61,29.90,29.75,29.65,10,4,2,37,27,51,0.94,8,Rain,37
2012-11-8,44,42,39,41,38,35,97,88,81,29.72,29.57,29.49,10,3,1,37,29,56,1.34,8,Rain,7
2012-11-9,54,44,35,36,28,22,87,58,30,30.12,29.91,29.72,10,10,10,17,10,24,0.00,2,,312
2012-11-10,54,44,32,35,30,24,89,68,35,30.46,30.29,30.12,10,10,8,10,5,18,0.00,0,,300
2012-11-11,61,46,30,51,43,28,93,78,55,30.53,30.49,30.45,10,9,4,13,4,20,0.00,3,,203
2012-11-12,66,58,51,58,54,51,100,85,65,30.50,30.44,30.27,10,7,0,15,7,21,0.01,5,Fog,199
2012-11-13,64,52,41,61,50,34,94,86,73,30.40,30.24,30.17,10,9,2,18,10,30,0.38,8,Rain,278
2012-11-14,45,42,39,37,31,28,86,64,55,30.50,30.45,30.39,10,10,7,20,12,29,0.01,6,Rain,20
2012-11-15,44,42,41,34,33,31,76,69,61,30.41,30.36,30.30,10,10,10,20,14,26,0.00,8,,14
2012-11-16,46,40,32,34,32,29,88,73,63,30.42,30.31,30.26,10,10,10,15,6,21,0.00,4,,355
2012-11-17,46,37,28,36,31,25,89,75,58,30.66,30.56,30.41,10,10,5,12,5,17,0.00,3,,360
2012-11-18,46,36,26,36,29,23,89,74,51,30.70,30.65,30.60,10,8,4,12,3,,0.00,1,,46
2012-11-19,48,39,30,38,33,28,89,80,61,30.59,30.45,30.26,10,10,10,10,2,,0.00,5,,9
2012-11-20,48,40,33,37,35,31,93,78,61,30.24,30.17,30.13,10,10,9,13,5,20,0.00,4,,10
2012-11-21,52,44,35,45,40,32,89,78,61,30.23,30.20,30.14,10,10,7,18,7,23,0.00,5,Rain,26
2012-11-22,52,41,30,44,37,28,100,87,62,30.26,30.22,30.14,10,5,0,13,2,,0.00,3,Fog,14
2012-11-23,52,40,28,44,34,26,97,89,66,30.13,29.98,29.68,10,4,0,9,1,,0.00,5,Fog,205
2012-11-24,48,40,32,46,29,14,97,62,35,29.67,29.59,29.54,10,9,2,18,7,30,0.00,4,,264
2012-11-25,41,34,28,21,17,15,67,52,40,29.89,29.79,29.68,10,10,10,21,12,28,0.00,1,,258
2012-11-26,46,36,25,23,21,18,78,55,34,30.26,30.06,29.90,10,10,10,17,8,28,0.00,1,,266
2012-11-27,37,30,24,34,30,19,93,86,65,30.34,30.27,30.19,10,6,2,8,1,,0.14,7,Rain-Snow,3
2012-11-28,37,32,25,34,30,22,93,84,70,30.17,30.15,30.11,10,8,2,13,8,23,0.08,6,Rain-Snow,336
2012-11-29,42,34,26,26,23,20,84,62,47,30.28,30.22,30.18,10,10,10,17,8,23,0.00,0,,244
2012-11-30,39,36,32,25,21,17,72,58,44,30.55,30.43,30.24,10,10,10,15,9,20,0.00,4,,20